CheckWX is a tool to help pilots better visualize weather data.  It is not intended as a substitute for an official pre-flight weather briefing.

05:01:42 UTC

KWMC TAF
Winnemucca Municipal Airport
Winnemucca, Nevada, USA
KWMC 272320Z 2800/2824 08005KT P6SM SKC

Feb-28@
00:00 UTC

Feb-28 @ 00:00 UTC

Feb-29@
00:00 UTC

Feb-29 @ 00:00 UTC

KWMC 272320Z 2800/2824 08005KT P6SM SKC
Wind
  • 080° at 5 KTS
Cloud Levels
  • Clear skies